Terminal Aerodrome Forecast
Issued by NWS

Home | Current Version | Previous Version | Graphics & Text | Print | Product List | Glossary On
Versions: 1 2 3 4 5 6 7 8 9 10 11 12 13 14 15 16 17 18 19 20 21 22 23 24 25 26 27 28 29 30 31
000
FTUS43 KLOT 151900 AAA
TAFORD
TAF AMD
KORD 151955Z 1520/1624 30010KT P6SM BKN050
     FM160000 VRB04KT P6SM SCT150
     FM160900 16008KT P6SM SCT100
     FM161500 17015G25KT P6SM BKN120
     FM161900 17018G30KT P6SM BKN120=

USA.gov is the U.S. government's official web portal to all federal, state and local government web resources and services.